sensor_id;sensor_type;location;lat;lon;timestamp;P1;durP1;ratioP1;P2;durP2;ratioP2
14143;SDS011;7152;48.348;10.980;2023-05-07T00:01:05;6.33;;;5.83;;
14143;SDS011;7152;48.348;10.980;2023-05-07T00:03:31;7.40;;;5.90;;
14143;SDS011;7152;48.348;10.980;2023-05-07T00:05:57;6.60;;;6.00;;
14143;SDS011;7152;48.348;10.980;2023-05-07T00:08:23;6.70;;;6.10;;
14143;SDS011;7152;48.348;10.980;2023-05-07T00:10:49;6.07;;;5.47;;
14143;SDS011;7152;48.348;10.980;2023-05-07T00:13:14;6.30;;;5.70;;
14143;SDS011;7152;48.348;10.980;2023-05-07T00:15:40;6.47;;;5.87;;
14143;SDS011;7152;48.348;10.980;2023-05-07T00:18:06;6.53;;;6.00;;
14143;SDS011;7152;48.348;10.980;2023-05-07T00:20:31;7.03;;;6.30;;
14143;SDS011;7152;48.348;10.980;2023-05-07T00:22:57;6.40;;;5.90;;
14143;SDS011;7152;48.348;10.980;2023-05-07T00:25:23;7.17;;;5.97;;
14143;SDS011;7152;48.348;10.980;2023-05-07T00:27:48;7.03;;;6.37;;
14143;SDS011;7152;48.348;10.980;2023-05-07T00:30:14;6.77;;;6.17;;
14143;SDS011;7152;48.348;10.980;2023-05-07T00:32:40;6.53;;;5.77;;
14143;SDS011;7152;48.348;10.980;2023-05-07T00:35:06;6.03;;;5.53;;
14143;SDS011;7152;48.348;10.980;2023-05-07T00:37:32;6.43;;;5.83;;
14143;SDS011;7152;48.348;10.980;2023-05-07T00:39:58;7.73;;;6.90;;
14143;SDS011;7152;48.348;10.980;2023-05-07T00:42:23;6.87;;;6.20;;
14143;SDS011;7152;48.348;10.980;2023-05-07T00:44:49;6.63;;;6.03;;
14143;SDS011;7152;48.348;10.980;2023-05-07T00:47:15;6.03;;;5.53;;
14143;SDS011;7152;48.348;10.980;2023-05-07T00:49:42;6.23;;;5.73;;
14143;SDS011;7152;48.348;10.980;2023-05-07T00:52:09;6.70;;;6.10;;
14143;SDS011;7152;48.348;10.980;2023-05-07T00:54:36;6.40;;;5.90;;
14143;SDS011;7152;48.348;10.980;2023-05-07T00:57:03;7.30;;;5.37;;
14143;SDS011;7152;48.348;10.980;2023-05-07T00:59:29;6.67;;;6.07;;
14143;SDS011;7152;48.348;10.980;2023-05-07T01:01:56;7.20;;;6.17;;
14143;SDS011;7152;48.348;10.980;2023-05-07T01:04:22;6.53;;;5.97;;
14143;SDS011;7152;48.348;10.980;2023-05-07T01:06:47;6.97;;;6.27;;
14143;SDS011;7152;48.348;10.980;2023-05-07T01:09:14;8.80;;;6.70;;
14143;SDS011;7152;48.348;10.980;2023-05-07T01:11:39;7.83;;;7.13;;
14143;SDS011;7152;48.348;10.980;2023-05-07T01:14:05;6.00;;;5.40;;
14143;SDS011;7152;48.348;10.980;2023-05-07T01:16:32;6.20;;;5.60;;
14143;SDS011;7152;48.348;10.980;2023-05-07T01:18:58;7.37;;;6.17;;
14143;SDS011;7152;48.348;10.980;2023-05-07T01:21:24;6.23;;;5.63;;
14143;SDS011;7152;48.348;10.980;2023-05-07T01:23:51;5.90;;;5.30;;
14143;SDS011;7152;48.348;10.980;2023-05-07T01:26:18;5.53;;;5.10;;
14143;SDS011;7152;48.348;10.980;2023-05-07T01:28:44;6.20;;;5.60;;
14143;SDS011;7152;48.348;10.980;2023-05-07T01:31:10;5.77;;;5.17;;
14143;SDS011;7152;48.348;10.980;2023-05-07T01:33:38;6.87;;;5.50;;
14143;SDS011;7152;48.348;10.980;2023-05-07T01:36:06;6.60;;;6.10;;
14143;SDS011;7152;48.348;10.980;2023-05-07T01:38:33;5.70;;;5.30;;
14143;SDS011;7152;48.348;10.980;2023-05-07T01:41:01;6.07;;;5.47;;
14143;SDS011;7152;48.348;10.980;2023-05-07T01:43:28;5.97;;;5.47;;
14143;SDS011;7152;48.348;10.980;2023-05-07T01:45:55;7.17;;;5.73;;
14143;SDS011;7152;48.348;10.980;2023-05-07T01:48:22;5.63;;;5.13;;
14143;SDS011;7152;48.348;10.980;2023-05-07T01:50:48;6.70;;;6.10;;
14143;SDS011;7152;48.348;10.980;2023-05-07T01:53:14;6.83;;;6.23;;
14143;SDS011;7152;48.348;10.980;2023-05-07T01:55:40;6.40;;;5.70;;
14143;SDS011;7152;48.348;10.980;2023-05-07T01:58:05;6.20;;;5.43;;
14143;SDS011;7152;48.348;10.980;2023-05-07T02:00:31;6.83;;;6.20;;
14143;SDS011;7152;48.348;10.980;2023-05-07T02:02:57;6.80;;;6.10;;
14143;SDS011;7152;48.348;10.980;2023-05-07T02:05:23;6.57;;;5.97;;
14143;SDS011;7152;48.348;10.980;2023-05-07T02:07:48;6.97;;;6.00;;
14143;SDS011;7152;48.348;10.980;2023-05-07T02:10:14;6.43;;;5.90;;
14143;SDS011;7152;48.348;10.980;2023-05-07T02:12:39;7.37;;;6.40;;
14143;SDS011;7152;48.348;10.980;2023-05-07T02:15:05;7.37;;;6.53;;
14143;SDS011;7152;48.348;10.980;2023-05-07T02:17:31;7.43;;;6.37;;
14143;SDS011;7152;48.348;10.980;2023-05-07T02:19:58;6.77;;;6.07;;
14143;SDS011;7152;48.348;10.980;2023-05-07T02:22:23;7.17;;;6.27;;
14143;SDS011;7152;48.348;10.980;2023-05-07T02:24:50;6.87;;;6.27;;
14143;SDS011;7152;48.348;10.980;2023-05-07T02:27:15;8.20;;;5.57;;
14143;SDS011;7152;48.348;10.980;2023-05-07T02:29:41;6.93;;;6.27;;
14143;SDS011;7152;48.348;10.980;2023-05-07T02:32:07;7.07;;;6.47;;
14143;SDS011;7152;48.348;10.980;2023-05-07T02:34:32;7.43;;;6.70;;
14143;SDS011;7152;48.348;10.980;2023-05-07T02:36:58;10.43;;;9.17;;
14143;SDS011;7152;48.348;10.980;2023-05-07T02:39:23;8.97;;;8.07;;
14143;SDS011;7152;48.348;10.980;2023-05-07T02:41:49;8.33;;;7.47;;
14143;SDS011;7152;48.348;10.980;2023-05-07T02:44:15;8.30;;;7.50;;
14143;SDS011;7152;48.348;10.980;2023-05-07T02:46:40;7.27;;;6.63;;
14143;SDS011;7152;48.348;10.980;2023-05-07T02:49:06;6.70;;;6.10;;
14143;SDS011;7152;48.348;10.980;2023-05-07T02:51:32;6.93;;;6.27;;
14143;SDS011;7152;48.348;10.980;2023-05-07T02:53:57;7.10;;;6.40;;
14143;SDS011;7152;48.348;10.980;2023-05-07T02:56:25;8.03;;;5.97;;
14143;SDS011;7152;48.348;10.980;2023-05-07T02:58:51;7.83;;;6.77;;
14143;SDS011;7152;48.348;10.980;2023-05-07T03:01:16;7.00;;;6.40;;
14143;SDS011;7152;48.348;10.980;2023-05-07T03:03:42;7.47;;;6.67;;
14143;SDS011;7152;48.348;10.980;2023-05-07T03:06:09;7.33;;;6.63;;
14143;SDS011;7152;48.348;10.980;2023-05-07T03:08:35;7.93;;;7.13;;
14143;SDS011;7152;48.348;10.980;2023-05-07T03:11:01;7.10;;;6.40;;
14143;SDS011;7152;48.348;10.980;2023-05-07T03:13:27;6.93;;;6.33;;
14143;SDS011;7152;48.348;10.980;2023-05-07T03:15:53;7.87;;;5.70;;
14143;SDS011;7152;48.348;10.980;2023-05-07T03:18:18;6.70;;;6.10;;
14143;SDS011;7152;48.348;10.980;2023-05-07T03:20:44;6.13;;;5.53;;
14143;SDS011;7152;48.348;10.980;2023-05-07T03:23:11;6.20;;;5.53;;
14143;SDS011;7152;48.348;10.980;2023-05-07T03:25:36;6.17;;;5.57;;
14143;SDS011;7152;48.348;10.980;2023-05-07T03:28:02;8.20;;;5.70;;
14143;SDS011;7152;48.348;10.980;2023-05-07T03:30:28;5.50;;;5.10;;
14143;SDS011;7152;48.348;10.980;2023-05-07T03:32:53;6.23;;;5.63;;
14143;SDS011;7152;48.348;10.980;2023-05-07T03:35:19;6.23;;;5.63;;
14143;SDS011;7152;48.348;10.980;2023-05-07T03:37:45;6.70;;;6.00;;
14143;SDS011;7152;48.348;10.980;2023-05-07T03:40:10;6.60;;;5.97;;
14143;SDS011;7152;48.348;10.980;2023-05-07T03:42:37;8.20;;;5.90;;
14143;SDS011;7152;48.348;10.980;2023-05-07T03:45:02;5.47;;;4.97;;
14143;SDS011;7152;48.348;10.980;2023-05-07T03:47:28;5.53;;;5.10;;
14143;SDS011;7152;48.348;10.980;2023-05-07T03:49:54;8.33;;;5.77;;
14143;SDS011;7152;48.348;10.980;2023-05-07T03:52:20;5.83;;;5.33;;
14143;SDS011;7152;48.348;10.980;2023-05-07T03:54:50;6.37;;;5.07;;
14143;SDS011;7152;48.348;10.980;2023-05-07T03:57:17;5.90;;;5.40;;
14143;SDS011;7152;48.348;10.980;2023-05-07T03:59:42;5.93;;;5.23;;
14143;SDS011;7152;48.348;10.980;2023-05-07T04:02:08;5.50;;;5.00;;
14143;SDS011;7152;48.348;10.980;2023-05-07T04:04:33;5.47;;;4.90;;
14143;SDS011;7152;48.348;10.980;2023-05-07T04:06:59;6.57;;;5.03;;
14143;SDS011;7152;48.348;10.980;2023-05-07T04:09:25;6.20;;;5.60;;
14143;SDS011;7152;48.348;10.980;2023-05-07T04:11:51;5.87;;;4.83;;
14143;SDS011;7152;48.348;10.980;2023-05-07T04:14:16;6.33;;;5.23;;
14143;SDS011;7152;48.348;10.980;2023-05-07T04:16:42;5.53;;;4.93;;
14143;SDS011;7152;48.348;10.980;2023-05-07T04:19:08;6.27;;;5.07;;
14143;SDS011;7152;48.348;10.980;2023-05-07T04:21:33;6.10;;;5.50;;
14143;SDS011;7152;48.348;10.980;2023-05-07T04:23:59;5.80;;;5.30;;
14143;SDS011;7152;48.348;10.980;2023-05-07T04:26:24;5.73;;;5.23;;
14143;SDS011;7152;48.348;10.980;2023-05-07T04:28:50;6.23;;;5.73;;
14143;SDS011;7152;48.348;10.980;2023-05-07T04:31:16;6.80;;;6.10;;
14143;SDS011;7152;48.348;10.980;2023-05-07T04:33:41;6.87;;;6.27;;
14143;SDS011;7152;48.348;10.980;2023-05-07T04:36:07;7.27;;;6.57;;
14143;SDS011;7152;48.348;10.980;2023-05-07T04:38:33;8.30;;;6.97;;
14143;SDS011;7152;48.348;10.980;2023-05-07T04:41:05;7.23;;;6.63;;
14143;SDS011;7152;48.348;10.980;2023-05-07T04:43:31;7.00;;;6.40;;
14143;SDS011;7152;48.348;10.980;2023-05-07T04:45:57;7.30;;;6.63;;
14143;SDS011;7152;48.348;10.980;2023-05-07T04:48:23;7.37;;;5.80;;
14143;SDS011;7152;48.348;10.980;2023-05-07T04:50:50;6.50;;;5.90;;
14143;SDS011;7152;48.348;10.980;2023-05-07T04:53:16;7.57;;;6.00;;
14143;SDS011;7152;48.348;10.980;2023-05-07T04:55:42;5.47;;;4.90;;
14143;SDS011;7152;48.348;10.980;2023-05-07T04:58:08;5.70;;;5.20;;
14143;SDS011;7152;48.348;10.980;2023-05-07T05:00:34;7.07;;;5.60;;
14143;SDS011;7152;48.348;10.980;2023-05-07T05:03:00;5.50;;;5.03;;
14143;SDS011;7152;48.348;10.980;2023-05-07T05:05:25;6.53;;;5.93;;
14143;SDS011;7152;48.348;10.980;2023-05-07T05:07:51;5.90;;;5.40;;
14143;SDS011;7152;48.348;10.980;2023-05-07T05:10:16;6.17;;;5.67;;
14143;SDS011;7152;48.348;10.980;2023-05-07T05:12:42;6.10;;;5.60;;
14143;SDS011;7152;48.348;10.980;2023-05-07T05:15:09;6.03;;;5.63;;
14143;SDS011;7152;48.348;10.980;2023-05-07T05:17:36;6.23;;;5.73;;
14143;SDS011;7152;48.348;10.980;2023-05-07T05:20:02;7.27;;;6.57;;
14143;SDS011;7152;48.348;10.980;2023-05-07T05:22:27;8.20;;;7.40;;
14143;SDS011;7152;48.348;10.980;2023-05-07T05:24:56;8.63;;;7.80;;
14143;SDS011;7152;48.348;10.980;2023-05-07T05:27:21;8.40;;;7.53;;
14143;SDS011;7152;48.348;10.980;2023-05-07T05:29:47;8.17;;;7.47;;
14143;SDS011;7152;48.348;10.980;2023-05-07T05:32:12;8.80;;;7.90;;
14143;SDS011;7152;48.348;10.980;2023-05-07T05:34:38;9.20;;;8.30;;
14143;SDS011;7152;48.348;10.980;2023-05-07T05:37:03;8.37;;;7.67;;
14143;SDS011;7152;48.348;10.980;2023-05-07T05:39:29;8.87;;;8.07;;
14143;SDS011;7152;48.348;10.980;2023-05-07T05:41:55;8.70;;;7.90;;
14143;SDS011;7152;48.348;10.980;2023-05-07T05:44:20;8.33;;;7.53;;
14143;SDS011;7152;48.348;10.980;2023-05-07T05:46:46;8.77;;;8.00;;
14143;SDS011;7152;48.348;10.980;2023-05-07T05:49:11;9.60;;;8.70;;
14143;SDS011;7152;48.348;10.980;2023-05-07T05:51:37;8.63;;;7.83;;
14143;SDS011;7152;48.348;10.980;2023-05-07T05:54:03;9.20;;;8.23;;
14143;SDS011;7152;48.348;10.980;2023-05-07T05:56:29;10.10;;;9.20;;
14143;SDS011;7152;48.348;10.980;2023-05-07T05:58:55;9.80;;;9.00;;
14143;SDS011;7152;48.348;10.980;2023-05-07T06:01:20;9.60;;;8.60;;
14143;SDS011;7152;48.348;10.980;2023-05-07T06:03:46;10.00;;;9.00;;
14143;SDS011;7152;48.348;10.980;2023-05-07T06:06:12;9.67;;;8.77;;
14143;SDS011;7152;48.348;10.980;2023-05-07T06:08:39;9.90;;;9.00;;
14143;SDS011;7152;48.348;10.980;2023-05-07T06:11:05;10.00;;;9.03;;
14143;SDS011;7152;48.348;10.980;2023-05-07T06:13:30;9.87;;;8.97;;
14143;SDS011;7152;48.348;10.980;2023-05-07T06:15:56;9.67;;;8.17;;
14143;SDS011;7152;48.348;10.980;2023-05-07T06:18:21;9.33;;;8.43;;
14143;SDS011;7152;48.348;10.980;2023-05-07T06:20:47;10.27;;;9.27;;
14143;SDS011;7152;48.348;10.980;2023-05-07T06:23:13;10.27;;;9.37;;
14143;SDS011;7152;48.348;10.980;2023-05-07T06:25:39;8.83;;;8.10;;
14143;SDS011;7152;48.348;10.980;2023-05-07T06:28:05;8.67;;;7.87;;
14143;SDS011;7152;48.348;10.980;2023-05-07T06:30:31;7.93;;;7.23;;
14143;SDS011;7152;48.348;10.980;2023-05-07T06:32:56;8.13;;;7.43;;
14143;SDS011;7152;48.348;10.980;2023-05-07T06:35:22;8.63;;;7.80;;
14143;SDS011;7152;48.348;10.980;2023-05-07T06:37:47;8.10;;;7.40;;
14143;SDS011;7152;48.348;10.980;2023-05-07T06:40:13;7.30;;;6.70;;
14143;SDS011;7152;48.348;10.980;2023-05-07T06:42:39;8.40;;;7.70;;
14143;SDS011;7152;48.348;10.980;2023-05-07T06:45:05;8.50;;;7.73;;
14143;SDS011;7152;48.348;10.980;2023-05-07T06:47:31;8.30;;;7.60;;
14143;SDS011;7152;48.348;10.980;2023-05-07T06:49:57;7.93;;;7.23;;
14143;SDS011;7152;48.348;10.980;2023-05-07T06:52:22;8.00;;;7.27;;
14143;SDS011;7152;48.348;10.980;2023-05-07T06:54:48;9.17;;;8.23;;
14143;SDS011;7152;48.348;10.980;2023-05-07T06:57:14;8.43;;;7.73;;
14143;SDS011;7152;48.348;10.980;2023-05-07T06:59:39;8.43;;;7.67;;
14143;SDS011;7152;48.348;10.980;2023-05-07T07:02:05;8.37;;;7.67;;
14143;SDS011;7152;48.348;10.980;2023-05-07T07:04:31;9.83;;;9.03;;
14143;SDS011;7152;48.348;10.980;2023-05-07T07:06:56;8.67;;;7.97;;
14143;SDS011;7152;48.348;10.980;2023-05-07T07:09:22;8.27;;;7.57;;
14143;SDS011;7152;48.348;10.980;2023-05-07T07:11:48;8.60;;;7.97;;
14143;SDS011;7152;48.348;10.980;2023-05-07T07:14:13;8.10;;;7.50;;
14143;SDS011;7152;48.348;10.980;2023-05-07T07:16:39;8.33;;;7.63;;
14143;SDS011;7152;48.348;10.980;2023-05-07T07:19:05;8.90;;;8.07;;
14143;SDS011;7152;48.348;10.980;2023-05-07T07:21:31;8.80;;;8.10;;
14143;SDS011;7152;48.348;10.980;2023-05-07T07:23:57;7.73;;;7.00;;
14143;SDS011;7152;48.348;10.980;2023-05-07T07:26:22;7.97;;;7.27;;
14143;SDS011;7152;48.348;10.980;2023-05-07T07:28:48;8.40;;;7.70;;
14143;SDS011;7152;48.348;10.980;2023-05-07T07:31:14;7.97;;;7.37;;
14143;SDS011;7152;48.348;10.980;2023-05-07T07:33:40;7.30;;;6.70;;
14143;SDS011;7152;48.348;10.980;2023-05-07T07:36:06;8.33;;;7.53;;
14143;SDS011;7152;48.348;10.980;2023-05-07T07:38:32;7.40;;;6.90;;
14143;SDS011;7152;48.348;10.980;2023-05-07T07:40:58;7.83;;;7.23;;
14143;SDS011;7152;48.348;10.980;2023-05-07T07:43:23;6.97;;;6.37;;
14143;SDS011;7152;48.348;10.980;2023-05-07T07:45:49;7.33;;;6.73;;
14143;SDS011;7152;48.348;10.980;2023-05-07T07:48:15;6.87;;;6.33;;
14143;SDS011;7152;48.348;10.980;2023-05-07T07:50:40;6.17;;;5.67;;
14143;SDS011;7152;48.348;10.980;2023-05-07T07:53:06;6.37;;;5.87;;
14143;SDS011;7152;48.348;10.980;2023-05-07T07:55:32;7.23;;;6.63;;
14143;SDS011;7152;48.348;10.980;2023-05-07T07:57:57;6.30;;;5.70;;
14143;SDS011;7152;48.348;10.980;2023-05-07T08:00:23;6.57;;;6.03;;
14143;SDS011;7152;48.348;10.980;2023-05-07T08:02:49;6.40;;;5.80;;
14143;SDS011;7152;48.348;10.980;2023-05-07T08:05:14;6.77;;;6.17;;
14143;SDS011;7152;48.348;10.980;2023-05-07T08:07:40;5.87;;;5.37;;
14143;SDS011;7152;48.348;10.980;2023-05-07T08:10:06;6.60;;;5.83;;
14143;SDS011;7152;48.348;10.980;2023-05-07T08:12:32;4.67;;;4.33;;
14143;SDS011;7152;48.348;10.980;2023-05-07T08:14:57;3.93;;;3.60;;
14143;SDS011;7152;48.348;10.980;2023-05-07T08:17:23;4.10;;;3.70;;
14143;SDS011;7152;48.348;10.980;2023-05-07T08:19:49;5.53;;;3.67;;
14143;SDS011;7152;48.348;10.980;2023-05-07T08:22:15;4.23;;;3.63;;
14143;SDS011;7152;48.348;10.980;2023-05-07T08:24:42;3.90;;;3.47;;
14143;SDS011;7152;48.348;10.980;2023-05-07T08:27:08;3.83;;;3.43;;
14143;SDS011;7152;48.348;10.980;2023-05-07T08:29:34;3.53;;;3.23;;
14143;SDS011;7152;48.348;10.980;2023-05-07T08:31:59;4.40;;;4.00;;
14143;SDS011;7152;48.348;10.980;2023-05-07T08:34:25;3.77;;;3.47;;
14143;SDS011;7152;48.348;10.980;2023-05-07T08:36:50;3.77;;;3.47;;
14143;SDS011;7152;48.348;10.980;2023-05-07T08:39:16;3.50;;;3.20;;
14143;SDS011;7152;48.348;10.980;2023-05-07T08:41:44;3.40;;;3.10;;
14143;SDS011;7152;48.348;10.980;2023-05-07T08:44:14;3.50;;;3.20;;
14143;SDS011;7152;48.348;10.980;2023-05-07T08:46:41;3.30;;;3.00;;
14143;SDS011;7152;48.348;10.980;2023-05-07T08:49:08;2.90;;;2.70;;
14143;SDS011;7152;48.348;10.980;2023-05-07T08:51:34;2.43;;;2.17;;
14143;SDS011;7152;48.348;10.980;2023-05-07T08:54:01;3.77;;;2.20;;
14143;SDS011;7152;48.348;10.980;2023-05-07T08:56:28;2.43;;;2.23;;
14143;SDS011;7152;48.348;10.980;2023-05-07T08:58:53;1.93;;;1.83;;
14143;SDS011;7152;48.348;10.980;2023-05-07T09:01:23;3.10;;;2.20;;
14143;SDS011;7152;48.348;10.980;2023-05-07T09:03:49;3.90;;;2.13;;
14143;SDS011;7152;48.348;10.980;2023-05-07T09:06:16;3.00;;;2.80;;
14143;SDS011;7152;48.348;10.980;2023-05-07T09:08:44;3.40;;;3.10;;
14143;SDS011;7152;48.348;10.980;2023-05-07T09:11:15;3.80;;;3.50;;
14143;SDS011;7152;48.348;10.980;2023-05-07T09:13:41;2.60;;;2.23;;
14143;SDS011;7152;48.348;10.980;2023-05-07T09:16:11;2.73;;;2.43;;
14143;SDS011;7152;48.348;10.980;2023-05-07T09:18:40;3.83;;;2.90;;
14143;SDS011;7152;48.348;10.980;2023-05-07T09:21:18;2.70;;;2.50;;
14143;SDS011;7152;48.348;10.980;2023-05-07T09:23:45;3.20;;;2.90;;
14143;SDS011;7152;48.348;10.980;2023-05-07T09:26:10;2.60;;;2.40;;
14143;SDS011;7152;48.348;10.980;2023-05-07T09:28:39;2.57;;;2.37;;
14143;SDS011;7152;48.348;10.980;2023-05-07T09:31:06;2.33;;;2.13;;
14143;SDS011;7152;48.348;10.980;2023-05-07T09:33:32;2.60;;;2.40;;
14143;SDS011;7152;48.348;10.980;2023-05-07T09:35:58;2.93;;;2.60;;
14143;SDS011;7152;48.348;10.980;2023-05-07T09:38:26;3.03;;;2.77;;
14143;SDS011;7152;48.348;10.980;2023-05-07T09:41:07;1.95;;;1.67;;
14143;SDS011;7152;48.348;10.980;2023-05-07T09:43:34;2.23;;;2.03;;
14143;SDS011;7152;48.348;10.980;2023-05-07T09:46:02;5.17;;;2.37;;
14143;SDS011;7152;48.348;10.980;2023-05-07T09:48:31;2.92;;;2.63;;
14143;SDS011;7152;48.348;10.980;2023-05-07T09:51:02;2.42;;;2.20;;
14143;SDS011;7152;48.348;10.980;2023-05-07T09:53:30;3.50;;;1.90;;
14143;SDS011;7152;48.348;10.980;2023-05-07T09:55:56;2.60;;;2.10;;
14143;SDS011;7152;48.348;10.980;2023-05-07T09:58:23;2.17;;;1.63;;
14143;SDS011;7152;48.348;10.980;2023-05-07T10:00:50;2.63;;;1.60;;
14143;SDS011;7152;48.348;10.980;2023-05-07T10:03:17;1.70;;;1.60;;
14143;SDS011;7152;48.348;10.980;2023-05-07T10:05:45;1.80;;;1.70;;
14143;SDS011;7152;48.348;10.980;2023-05-07T10:08:12;1.83;;;1.70;;
14143;SDS011;7152;48.348;10.980;2023-05-07T10:10:39;1.88;;;1.50;;
14143;SDS011;7152;48.348;10.980;2023-05-07T10:13:06;1.77;;;1.50;;
14143;SDS011;7152;48.348;10.980;2023-05-07T10:15:35;1.30;;;1.10;;
14143;SDS011;7152;48.348;10.980;2023-05-07T10:18:02;1.65;;;1.48;;
14143;SDS011;7152;48.348;10.980;2023-05-07T10:20:29;1.42;;;1.20;;
14143;SDS011;7152;48.348;10.980;2023-05-07T10:22:55;2.15;;;1.45;;
14143;SDS011;7152;48.348;10.980;2023-05-07T10:25:28;1.90;;;1.52;;
14143;SDS011;7152;48.348;10.980;2023-05-07T10:27:56;1.30;;;1.20;;
14143;SDS011;7152;48.348;10.980;2023-05-07T10:33:04;2.30;;;1.40;;
14143;SDS011;7152;48.348;10.980;2023-05-07T10:35:32;1.48;;;1.38;;
14143;SDS011;7152;48.348;10.980;2023-05-07T10:38:03;2.30;;;1.27;;
14143;SDS011;7152;48.348;10.980;2023-05-07T10:40:30;1.70;;;1.02;;
14143;SDS011;7152;48.348;10.980;2023-05-07T10:42:57;1.25;;;1.00;;
14143;SDS011;7152;48.348;10.980;2023-05-07T10:45:25;1.02;;;0.80;;
14143;SDS011;7152;48.348;10.980;2023-05-07T10:48:07;3.30;;;1.15;;
14143;SDS011;7152;48.348;10.980;2023-05-07T10:50:40;0.70;;;0.70;;
14143;SDS011;7152;48.348;10.980;2023-05-07T10:55:41;0.80;;;0.80;;
14143;SDS011;7152;48.348;10.980;2023-05-07T11:00:47;1.05;;;0.90;;
14143;SDS011;7152;48.348;10.980;2023-05-07T11:03:13;2.25;;;0.82;;
14143;SDS011;7152;48.348;10.980;2023-05-07T11:05:40;1.45;;;0.93;;
14143;SDS011;7152;48.348;10.980;2023-05-07T11:08:06;1.10;;;1.00;;
14143;SDS011;7152;48.348;10.980;2023-05-07T11:11:06;1.20;;;0.80;;
14143;SDS011;7152;48.348;10.980;2023-05-07T11:13:46;1.10;;;0.60;;
14143;SDS011;7152;48.348;10.980;2023-05-07T11:16:46;1.33;;;1.00;;
14143;SDS011;7152;48.348;10.980;2023-05-07T11:19:05;1.45;;;0.95;;
14143;SDS011;7152;48.348;10.980;2023-05-07T11:24:03;1.33;;;1.08;;
14143;SDS011;7152;48.348;10.980;2023-05-07T11:26:31;1.25;;;1.10;;
14143;SDS011;7152;48.348;10.980;2023-05-07T11:29:10;1.67;;;1.17;;
14143;SDS011;7152;48.348;10.980;2023-05-07T11:31:50;1.80;;;1.40;;
14143;SDS011;7152;48.348;10.980;2023-05-07T11:34:23;1.75;;;1.25;;
14143;SDS011;7152;48.348;10.980;2023-05-07T11:36:50;1.20;;;1.02;;
14143;SDS011;7152;48.348;10.980;2023-05-07T11:39:23;2.17;;;1.10;;
14143;SDS011;7152;48.348;10.980;2023-05-07T11:41:53;1.13;;;0.85;;
14143;SDS011;7152;48.348;10.980;2023-05-07T11:44:19;1.15;;;0.93;;
14143;SDS011;7152;48.348;10.980;2023-05-07T11:46:45;2.70;;;0.90;;
14143;SDS011;7152;48.348;10.980;2023-05-07T11:49:11;1.15;;;0.88;;
14143;SDS011;7152;48.348;10.980;2023-05-07T11:51:36;1.05;;;0.90;;
14143;SDS011;7152;48.348;10.980;2023-05-07T11:54:03;2.17;;;0.90;;
14143;SDS011;7152;48.348;10.980;2023-05-07T11:56:33;1.55;;;0.95;;
14143;SDS011;7152;48.348;10.980;2023-05-07T11:59:00;1.33;;;0.95;;
14143;SDS011;7152;48.348;10.980;2023-05-07T12:01:26;4.57;;;1.00;;
14143;SDS011;7152;48.348;10.980;2023-05-07T12:03:52;1.88;;;1.00;;
14143;SDS011;7152;48.348;10.980;2023-05-07T12:06:17;1.48;;;0.90;;
14143;SDS011;7152;48.348;10.980;2023-05-07T12:08:44;1.48;;;1.10;;
14143;SDS011;7152;48.348;10.980;2023-05-07T12:11:12;2.03;;;1.00;;
14143;SDS011;7152;48.348;10.980;2023-05-07T12:13:41;1.17;;;1.08;;
14143;SDS011;7152;48.348;10.980;2023-05-07T12:16:07;1.73;;;1.08;;
14143;SDS011;7152;48.348;10.980;2023-05-07T12:18:36;1.50;;;1.13;;
14143;SDS011;7152;48.348;10.980;2023-05-07T12:21:03;0.70;;;0.70;;
14143;SDS011;7152;48.348;10.980;2023-05-07T12:23:31;1.45;;;0.93;;
14143;SDS011;7152;48.348;10.980;2023-05-07T12:25:57;1.60;;;1.10;;
14143;SDS011;7152;48.348;10.980;2023-05-07T12:28:24;1.13;;;0.90;;
14143;SDS011;7152;48.348;10.980;2023-05-07T12:30:50;2.95;;;1.05;;
14143;SDS011;7152;48.348;10.980;2023-05-07T12:33:23;1.20;;;1.10;;
14143;SDS011;7152;48.348;10.980;2023-05-07T12:35:50;2.47;;;1.00;;
14143;SDS011;7152;48.348;10.980;2023-05-07T12:38:17;1.83;;;0.93;;
14143;SDS011;7152;48.348;10.980;2023-05-07T12:40:45;1.55;;;1.30;;
14143;SDS011;7152;48.348;10.980;2023-05-07T12:43:16;2.45;;;1.17;;
14143;SDS011;7152;48.348;10.980;2023-05-07T12:45:42;1.95;;;0.95;;
14143;SDS011;7152;48.348;10.980;2023-05-07T12:48:09;1.08;;;1.00;;
14143;SDS011;7152;48.348;10.980;2023-05-07T12:50:35;1.45;;;1.10;;
14143;SDS011;7152;48.348;10.980;2023-05-07T12:53:03;2.35;;;0.98;;
14143;SDS011;7152;48.348;10.980;2023-05-07T12:55:39;2.08;;;1.27;;
14143;SDS011;7152;48.348;10.980;2023-05-07T12:58:16;1.40;;;1.17;;
14143;SDS011;7152;48.348;10.980;2023-05-07T13:00:44;1.20;;;1.00;;
14143;SDS011;7152;48.348;10.980;2023-05-07T13:03:11;1.10;;;1.10;;
14143;SDS011;7152;48.348;10.980;2023-05-07T13:05:45;1.98;;;1.40;;
14143;SDS011;7152;48.348;10.980;2023-05-07T13:08:11;1.10;;;1.00;;
14143;SDS011;7152;48.348;10.980;2023-05-07T13:10:36;2.00;;;1.50;;
14143;SDS011;7152;48.348;10.980;2023-05-07T13:13:02;1.65;;;1.30;;
14143;SDS011;7152;48.348;10.980;2023-05-07T13:15:28;1.80;;;1.30;;
14143;SDS011;7152;48.348;10.980;2023-05-07T13:17:53;1.88;;;1.13;;
14143;SDS011;7152;48.348;10.980;2023-05-07T13:20:20;2.47;;;1.90;;
14143;SDS011;7152;48.348;10.980;2023-05-07T13:22:46;1.58;;;1.27;;
14143;SDS011;7152;48.348;10.980;2023-05-07T13:25:11;1.35;;;1.25;;
14143;SDS011;7152;48.348;10.980;2023-05-07T13:27:37;1.88;;;1.65;;
14143;SDS011;7152;48.348;10.980;2023-05-07T13:30:03;1.77;;;1.20;;
14143;SDS011;7152;48.348;10.980;2023-05-07T13:32:31;1.90;;;1.40;;
14143;SDS011;7152;48.348;10.980;2023-05-07T13:34:57;1.25;;;1.00;;
14143;SDS011;7152;48.348;10.980;2023-05-07T13:37:23;1.75;;;1.25;;
14143;SDS011;7152;48.348;10.980;2023-05-07T13:39:48;2.17;;;1.30;;
14143;SDS011;7152;48.348;10.980;2023-05-07T13:42:14;2.53;;;1.45;;
14143;SDS011;7152;48.348;10.980;2023-05-07T13:44:39;3.05;;;1.98;;
14143;SDS011;7152;48.348;10.980;2023-05-07T13:47:05;1.58;;;1.48;;
14143;SDS011;7152;48.348;10.980;2023-05-07T13:49:31;1.52;;;1.42;;
14143;SDS011;7152;48.348;10.980;2023-05-07T13:51:56;1.27;;;1.08;;
14143;SDS011;7152;48.348;10.980;2023-05-07T13:54:22;1.20;;;1.10;;
14143;SDS011;7152;48.348;10.980;2023-05-07T13:56:47;2.13;;;1.20;;
14143;SDS011;7152;48.348;10.980;2023-05-07T13:59:13;2.75;;;1.20;;
14143;SDS011;7152;48.348;10.980;2023-05-07T14:01:39;1.30;;;1.13;;
14143;SDS011;7152;48.348;10.980;2023-05-07T14:04:05;1.52;;;1.20;;
14143;SDS011;7152;48.348;10.980;2023-05-07T14:06:31;1.40;;;1.27;;
14143;SDS011;7152;48.348;10.980;2023-05-07T14:08:56;1.70;;;1.42;;
14143;SDS011;7152;48.348;10.980;2023-05-07T14:11:23;5.40;;;2.53;;
14143;SDS011;7152;48.348;10.980;2023-05-07T14:13:48;1.65;;;1.30;;
14143;SDS011;7152;48.348;10.980;2023-05-07T14:16:14;1.52;;;1.33;;
14143;SDS011;7152;48.348;10.980;2023-05-07T14:18:40;2.50;;;1.40;;
14143;SDS011;7152;48.348;10.980;2023-05-07T14:21:05;1.75;;;1.30;;
14143;SDS011;7152;48.348;10.980;2023-05-07T14:23:32;2.55;;;1.45;;
14143;SDS011;7152;48.348;10.980;2023-05-07T14:25:57;2.53;;;1.60;;
14143;SDS011;7152;48.348;10.980;2023-05-07T14:28:23;2.10;;;1.30;;
14143;SDS011;7152;48.348;10.980;2023-05-07T14:30:49;1.20;;;1.10;;
14143;SDS011;7152;48.348;10.980;2023-05-07T14:33:14;1.42;;;1.25;;
14143;SDS011;7152;48.348;10.980;2023-05-07T14:35:40;1.88;;;1.30;;
14143;SDS011;7152;48.348;10.980;2023-05-07T14:38:06;1.60;;;1.15;;
14143;SDS011;7152;48.348;10.980;2023-05-07T14:40:31;1.50;;;1.30;;
14143;SDS011;7152;48.348;10.980;2023-05-07T14:42:57;2.17;;;1.20;;
14143;SDS011;7152;48.348;10.980;2023-05-07T14:45:22;1.45;;;1.10;;
14143;SDS011;7152;48.348;10.980;2023-05-07T14:47:48;1.40;;;1.08;;
14143;SDS011;7152;48.348;10.980;2023-05-07T14:50:14;1.90;;;1.10;;
14143;SDS011;7152;48.348;10.980;2023-05-07T14:52:39;1.85;;;1.38;;
14143;SDS011;7152;48.348;10.980;2023-05-07T14:55:05;2.80;;;1.67;;